sensor_id;sensor_type;location;lat;lon;timestamp;temperature;humidity
4643;DHT22;2334;48.710;9.622;2023-06-24T00:00:03;17.20;99.90
4643;DHT22;2334;48.710;9.622;2023-06-24T00:02:32;17.20;99.90
4643;DHT22;2334;48.710;9.622;2023-06-24T00:05:02;17.30;99.90
4643;DHT22;2334;48.710;9.622;2023-06-24T00:07:31;17.30;99.90
4643;DHT22;2334;48.710;9.622;2023-06-24T00:10:03;17.30;99.90
4643;DHT22;2334;48.710;9.622;2023-06-24T00:12:32;17.30;99.90
4643;DHT22;2334;48.710;9.622;2023-06-24T00:14:59;17.30;99.90
4643;DHT22;2334;48.710;9.622;2023-06-24T00:17:26;17.20;99.90
4643;DHT22;2334;48.710;9.622;2023-06-24T00:19:53;17.10;99.90
4643;DHT22;2334;48.710;9.622;2023-06-24T00:22:20;17.00;99.90
4643;DHT22;2334;48.710;9.622;2023-06-24T00:24:47;17.00;99.90
4643;DHT22;2334;48.710;9.622;2023-06-24T00:27:17;16.90;99.90
4643;DHT22;2334;48.710;9.622;2023-06-24T00:29:44;16.90;99.90
4643;DHT22;2334;48.710;9.622;2023-06-24T00:32:10;17.00;99.90
4643;DHT22;2334;48.710;9.622;2023-06-24T00:34:37;16.90;99.90
4643;DHT22;2334;48.710;9.622;2023-06-24T00:37:09;17.00;99.90
4643;DHT22;2334;48.710;9.622;2023-06-24T00:39:36;16.90;99.90
4643;DHT22;2334;48.710;9.622;2023-06-24T00:42:03;16.90;99.90
4643;DHT22;2334;48.710;9.622;2023-06-24T00:44:32;16.70;99.90
4643;DHT22;2334;48.710;9.622;2023-06-24T00:46:58;16.60;99.90
4643;DHT22;2334;48.710;9.622;2023-06-24T00:49:25;16.70;99.90
4643;DHT22;2334;48.710;9.622;2023-06-24T00:51:52;16.70;99.90
4643;DHT22;2334;48.710;9.622;2023-06-24T00:54:21;16.70;99.90
4643;DHT22;2334;48.710;9.622;2023-06-24T00:56:55;16.60;99.90
4643;DHT22;2334;48.710;9.622;2023-06-24T00:59:21;16.60;99.90
4643;DHT22;2334;48.710;9.622;2023-06-24T01:01:50;16.60;99.90
4643;DHT22;2334;48.710;9.622;2023-06-24T01:04:18;16.40;99.90
4643;DHT22;2334;48.710;9.622;2023-06-24T01:06:45;16.40;99.90
4643;DHT22;2334;48.710;9.622;2023-06-24T01:09:13;16.40;99.90
4643;DHT22;2334;48.710;9.622;2023-06-24T01:11:39;16.50;99.90
4643;DHT22;2334;48.710;9.622;2023-06-24T01:14:06;16.50;99.90
4643;DHT22;2334;48.710;9.622;2023-06-24T01:16:39;16.50;99.90
4643;DHT22;2334;48.710;9.622;2023-06-24T01:19:26;16.50;99.90
4643;DHT22;2334;48.710;9.622;2023-06-24T01:22:05;16.50;99.90
4643;DHT22;2334;48.710;9.622;2023-06-24T01:24:51;16.50;99.90
4643;DHT22;2334;48.710;9.622;2023-06-24T01:27:32;16.40;99.90
4643;DHT22;2334;48.710;9.622;2023-06-24T01:30:14;16.30;99.90
4643;DHT22;2334;48.710;9.622;2023-06-24T01:32:49;16.20;99.90
4643;DHT22;2334;48.710;9.622;2023-06-24T01:35:20;16.10;99.90
4643;DHT22;2334;48.710;9.622;2023-06-24T01:37:51;16.10;99.90
4643;DHT22;2334;48.710;9.622;2023-06-24T01:40:25;16.10;99.90
4643;DHT22;2334;48.710;9.622;2023-06-24T01:42:53;16.10;99.90
4643;DHT22;2334;48.710;9.622;2023-06-24T01:45:23;16.00;99.90
4643;DHT22;2334;48.710;9.622;2023-06-24T01:47:58;16.00;99.90
4643;DHT22;2334;48.710;9.622;2023-06-24T01:50:27;16.00;99.90
4643;DHT22;2334;48.710;9.622;2023-06-24T01:52:56;16.00;99.90
4643;DHT22;2334;48.710;9.622;2023-06-24T01:55:24;16.00;99.90
4643;DHT22;2334;48.710;9.622;2023-06-24T01:57:54;15.90;99.90
4643;DHT22;2334;48.710;9.622;2023-06-24T02:00:23;15.90;99.90
4643;DHT22;2334;48.710;9.622;2023-06-24T02:02:52;15.90;99.90
4643;DHT22;2334;48.710;9.622;2023-06-24T02:05:21;15.90;99.90
4643;DHT22;2334;48.710;9.622;2023-06-24T02:07:49;15.90;99.90
4643;DHT22;2334;48.710;9.622;2023-06-24T02:10:18;15.80;99.90
4643;DHT22;2334;48.710;9.622;2023-06-24T02:12:48;15.80;99.90
4643;DHT22;2334;48.710;9.622;2023-06-24T02:15:16;15.80;99.90
4643;DHT22;2334;48.710;9.622;2023-06-24T02:17:44;15.70;99.90
4643;DHT22;2334;48.710;9.622;2023-06-24T02:20:15;15.70;99.90
4643;DHT22;2334;48.710;9.622;2023-06-24T02:22:44;15.70;99.90
4643;DHT22;2334;48.710;9.622;2023-06-24T02:25:11;15.70;99.90
4643;DHT22;2334;48.710;9.622;2023-06-24T02:27:39;15.60;99.90
4643;DHT22;2334;48.710;9.622;2023-06-24T02:30:08;15.50;99.90
4643;DHT22;2334;48.710;9.622;2023-06-24T02:32:36;15.50;99.90
4643;DHT22;2334;48.710;9.622;2023-06-24T02:35:06;15.50;99.90
4643;DHT22;2334;48.710;9.622;2023-06-24T02:37:34;15.50;99.90
4643;DHT22;2334;48.710;9.622;2023-06-24T02:40:02;15.50;99.90
4643;DHT22;2334;48.710;9.622;2023-06-24T02:42:29;15.50;99.90
4643;DHT22;2334;48.710;9.622;2023-06-24T02:44:56;15.30;99.90
4643;DHT22;2334;48.710;9.622;2023-06-24T02:47:24;15.30;99.90
4643;DHT22;2334;48.710;9.622;2023-06-24T02:49:52;15.40;99.90
4643;DHT22;2334;48.710;9.622;2023-06-24T02:52:20;15.40;99.90
4643;DHT22;2334;48.710;9.622;2023-06-24T02:54:49;15.30;99.90
4643;DHT22;2334;48.710;9.622;2023-06-24T02:57:16;15.30;99.90
4643;DHT22;2334;48.710;9.622;2023-06-24T02:59:45;15.30;99.90
4643;DHT22;2334;48.710;9.622;2023-06-24T03:02:13;15.30;99.90
4643;DHT22;2334;48.710;9.622;2023-06-24T03:04:41;15.20;99.90
4643;DHT22;2334;48.710;9.622;2023-06-24T03:07:08;15.20;99.90
4643;DHT22;2334;48.710;9.622;2023-06-24T03:09:36;15.10;99.90
4643;DHT22;2334;48.710;9.622;2023-06-24T03:12:06;15.00;99.90
4643;DHT22;2334;48.710;9.622;2023-06-24T03:14:33;15.00;99.90
4643;DHT22;2334;48.710;9.622;2023-06-24T03:16:59;15.00;99.90
4643;DHT22;2334;48.710;9.622;2023-06-24T03:19:26;14.90;99.90
4643;DHT22;2334;48.710;9.622;2023-06-24T03:21:53;14.90;99.90
4643;DHT22;2334;48.710;9.622;2023-06-24T03:24:20;14.90;99.90
4643;DHT22;2334;48.710;9.622;2023-06-24T03:26:47;14.90;99.90
4643;DHT22;2334;48.710;9.622;2023-06-24T03:29:17;14.80;99.90
4643;DHT22;2334;48.710;9.622;2023-06-24T03:31:44;14.70;99.90
4643;DHT22;2334;48.710;9.622;2023-06-24T03:34:11;14.70;99.90
4643;DHT22;2334;48.710;9.622;2023-06-24T03:36:39;14.70;99.90
4643;DHT22;2334;48.710;9.622;2023-06-24T03:39:06;14.70;99.90
4643;DHT22;2334;48.710;9.622;2023-06-24T03:41:33;14.70;99.90
4643;DHT22;2334;48.710;9.622;2023-06-24T03:44:00;14.80;99.90
4643;DHT22;2334;48.710;9.622;2023-06-24T03:46:29;14.80;99.90
4643;DHT22;2334;48.710;9.622;2023-06-24T03:48:58;14.80;99.90
4643;DHT22;2334;48.710;9.622;2023-06-24T03:51:26;14.80;99.90
4643;DHT22;2334;48.710;9.622;2023-06-24T03:53:52;14.80;99.90
4643;DHT22;2334;48.710;9.622;2023-06-24T03:56:19;14.80;99.90
4643;DHT22;2334;48.710;9.622;2023-06-24T03:58:46;14.70;99.90
4643;DHT22;2334;48.710;9.622;2023-06-24T04:01:13;14.60;99.90
4643;DHT22;2334;48.710;9.622;2023-06-24T04:03:41;14.60;99.90
4643;DHT22;2334;48.710;9.622;2023-06-24T04:06:08;14.70;99.90
4643;DHT22;2334;48.710;9.622;2023-06-24T04:08:35;14.70;99.90
4643;DHT22;2334;48.710;9.622;2023-06-24T04:11:05;14.70;99.90
4643;DHT22;2334;48.710;9.622;2023-06-24T04:13:33;14.80;99.90
4643;DHT22;2334;48.710;9.622;2023-06-24T04:16:00;14.80;99.90
4643;DHT22;2334;48.710;9.622;2023-06-24T04:18:27;14.80;99.90
4643;DHT22;2334;48.710;9.622;2023-06-24T04:20:55;14.80;99.90
4643;DHT22;2334;48.710;9.622;2023-06-24T04:23:23;14.80;99.90
4643;DHT22;2334;48.710;9.622;2023-06-24T04:25:50;14.70;99.90
4643;DHT22;2334;48.710;9.622;2023-06-24T04:28:16;14.80;99.90
4643;DHT22;2334;48.710;9.622;2023-06-24T04:30:43;14.90;99.90
4643;DHT22;2334;48.710;9.622;2023-06-24T04:33:10;14.90;99.90
4643;DHT22;2334;48.710;9.622;2023-06-24T04:35:37;15.00;99.90
4643;DHT22;2334;48.710;9.622;2023-06-24T04:38:05;15.00;99.90
4643;DHT22;2334;48.710;9.622;2023-06-24T04:40:32;15.10;99.90
4643;DHT22;2334;48.710;9.622;2023-06-24T04:42:59;15.20;99.90
4643;DHT22;2334;48.710;9.622;2023-06-24T04:45:25;15.20;99.90
4643;DHT22;2334;48.710;9.622;2023-06-24T04:47:52;15.30;99.90
4643;DHT22;2334;48.710;9.622;2023-06-24T04:50:19;15.30;99.90
4643;DHT22;2334;48.710;9.622;2023-06-24T04:52:52;15.40;99.90
4643;DHT22;2334;48.710;9.622;2023-06-24T04:55:21;15.20;99.90
4643;DHT22;2334;48.710;9.622;2023-06-24T04:57:48;15.20;99.90
4643;DHT22;2334;48.710;9.622;2023-06-24T05:00:15;15.20;99.90
4643;DHT22;2334;48.710;9.622;2023-06-24T05:02:42;15.20;99.90
4643;DHT22;2334;48.710;9.622;2023-06-24T05:05:09;15.20;99.90
4643;DHT22;2334;48.710;9.622;2023-06-24T05:07:36;15.20;99.90
4643;DHT22;2334;48.710;9.622;2023-06-24T05:10:04;15.20;99.90
4643;DHT22;2334;48.710;9.622;2023-06-24T05:12:33;15.30;99.90
4643;DHT22;2334;48.710;9.622;2023-06-24T05:15:00;15.30;99.90
4643;DHT22;2334;48.710;9.622;2023-06-24T05:17:26;15.40;99.90
4643;DHT22;2334;48.710;9.622;2023-06-24T05:19:53;15.40;99.90
4643;DHT22;2334;48.710;9.622;2023-06-24T05:22:20;15.50;99.90
4643;DHT22;2334;48.710;9.622;2023-06-24T05:24:47;15.60;99.90
4643;DHT22;2334;48.710;9.622;2023-06-24T05:27:14;15.80;99.90
4643;DHT22;2334;48.710;9.622;2023-06-24T05:29:42;15.80;99.90
4643;DHT22;2334;48.710;9.622;2023-06-24T05:32:09;16.00;99.90
4643;DHT22;2334;48.710;9.622;2023-06-24T05:34:36;16.10;99.90
4643;DHT22;2334;48.710;9.622;2023-06-24T05:37:03;16.10;99.90
4643;DHT22;2334;48.710;9.622;2023-06-24T05:39:30;16.10;99.90
4643;DHT22;2334;48.710;9.622;2023-06-24T05:41:57;16.20;99.90
4643;DHT22;2334;48.710;9.622;2023-06-24T05:44:24;16.30;99.90
4643;DHT22;2334;48.710;9.622;2023-06-24T05:46:53;16.50;99.90
4643;DHT22;2334;48.710;9.622;2023-06-24T05:49:19;16.50;99.90
4643;DHT22;2334;48.710;9.622;2023-06-24T05:51:46;16.70;99.90
4643;DHT22;2334;48.710;9.622;2023-06-24T05:54:13;16.70;99.90
4643;DHT22;2334;48.710;9.622;2023-06-24T05:56:40;16.90;99.90
4643;DHT22;2334;48.710;9.622;2023-06-24T05:59:07;16.90;99.90
4643;DHT22;2334;48.710;9.622;2023-06-24T06:01:34;16.90;99.90
4643;DHT22;2334;48.710;9.622;2023-06-24T06:04:02;17.00;99.90
4643;DHT22;2334;48.710;9.622;2023-06-24T06:06:29;17.20;99.90
4643;DHT22;2334;48.710;9.622;2023-06-24T06:08:56;17.40;99.90
4643;DHT22;2334;48.710;9.622;2023-06-24T06:11:23;17.60;99.90
4643;DHT22;2334;48.710;9.622;2023-06-24T06:13:50;17.80;99.90
4643;DHT22;2334;48.710;9.622;2023-06-24T06:16:17;17.90;99.90
4643;DHT22;2334;48.710;9.622;2023-06-24T06:18:44;17.90;99.90
4643;DHT22;2334;48.710;9.622;2023-06-24T06:21:13;18.10;99.90
4643;DHT22;2334;48.710;9.622;2023-06-24T06:23:40;18.20;99.90
4643;DHT22;2334;48.710;9.622;2023-06-24T06:26:06;18.30;99.90
4643;DHT22;2334;48.710;9.622;2023-06-24T06:28:34;18.50;99.90
4643;DHT22;2334;48.710;9.622;2023-06-24T06:31:01;18.70;99.90
4643;DHT22;2334;48.710;9.622;2023-06-24T06:33:28;18.70;99.90
4643;DHT22;2334;48.710;9.622;2023-06-24T06:35:55;18.80;99.90
4643;DHT22;2334;48.710;9.622;2023-06-24T06:38:23;19.10;99.90
4643;DHT22;2334;48.710;9.622;2023-06-24T06:40:50;19.30;99.90
4643;DHT22;2334;48.710;9.622;2023-06-24T06:43:17;19.50;99.90
4643;DHT22;2334;48.710;9.622;2023-06-24T06:45:43;19.60;99.90
4643;DHT22;2334;48.710;9.622;2023-06-24T06:48:10;19.80;99.90
4643;DHT22;2334;48.710;9.622;2023-06-24T06:50:37;19.80;99.90
4643;DHT22;2334;48.710;9.622;2023-06-24T06:53:04;20.10;99.90
4643;DHT22;2334;48.710;9.622;2023-06-24T06:55:32;20.20;99.90
4643;DHT22;2334;48.710;9.622;2023-06-24T06:57:59;20.30;99.90
4643;DHT22;2334;48.710;9.622;2023-06-24T07:00:26;20.50;99.90
4643;DHT22;2334;48.710;9.622;2023-06-24T07:02:53;20.50;99.90
4643;DHT22;2334;48.710;9.622;2023-06-24T07:05:19;20.50;99.90
4643;DHT22;2334;48.710;9.622;2023-06-24T07:07:46;20.70;99.90
4643;DHT22;2334;48.710;9.622;2023-06-24T07:10:15;20.90;99.90
4643;DHT22;2334;48.710;9.622;2023-06-24T07:12:45;21.10;99.90
4643;DHT22;2334;48.710;9.622;2023-06-24T07:15:12;21.30;99.90
4643;DHT22;2334;48.710;9.622;2023-06-24T07:17:40;21.50;99.90
4643;DHT22;2334;48.710;9.622;2023-06-24T07:20:08;21.50;99.90
4643;DHT22;2334;48.710;9.622;2023-06-24T07:22:35;21.70;99.90
4643;DHT22;2334;48.710;9.622;2023-06-24T07:25:02;21.70;99.90
4643;DHT22;2334;48.710;9.622;2023-06-24T07:27:29;21.80;99.90
4643;DHT22;2334;48.710;9.622;2023-06-24T07:29:57;22.00;99.90
4643;DHT22;2334;48.710;9.622;2023-06-24T07:32:24;21.80;99.90
4643;DHT22;2334;48.710;9.622;2023-06-24T07:34:51;21.80;99.90
4643;DHT22;2334;48.710;9.622;2023-06-24T07:37:18;21.90;99.90
4643;DHT22;2334;48.710;9.622;2023-06-24T07:39:45;22.20;99.90
4643;DHT22;2334;48.710;9.622;2023-06-24T07:42:12;22.40;99.90
4643;DHT22;2334;48.710;9.622;2023-06-24T07:44:44;22.40;99.90
4643;DHT22;2334;48.710;9.622;2023-06-24T07:47:12;22.60;99.90
4643;DHT22;2334;48.710;9.622;2023-06-24T07:49:39;22.70;99.90
4643;DHT22;2334;48.710;9.622;2023-06-24T07:52:09;22.80;99.90
4643;DHT22;2334;48.710;9.622;2023-06-24T07:54:36;22.90;99.90
4643;DHT22;2334;48.710;9.622;2023-06-24T07:57:03;23.20;99.90
4643;DHT22;2334;48.710;9.622;2023-06-24T07:59:30;23.40;99.90
4643;DHT22;2334;48.710;9.622;2023-06-24T08:01:57;23.70;99.90
4643;DHT22;2334;48.710;9.622;2023-06-24T08:04:25;23.90;99.90
4643;DHT22;2334;48.710;9.622;2023-06-24T08:06:52;23.70;99.90
4643;DHT22;2334;48.710;9.622;2023-06-24T08:09:19;23.80;99.90
4643;DHT22;2334;48.710;9.622;2023-06-24T08:11:46;23.80;99.90
4643;DHT22;2334;48.710;9.622;2023-06-24T08:14:13;24.00;99.90
4643;DHT22;2334;48.710;9.622;2023-06-24T08:16:40;24.00;99.90
4643;DHT22;2334;48.710;9.622;2023-06-24T08:19:07;24.30;99.90
4643;DHT22;2334;48.710;9.622;2023-06-24T08:21:35;24.50;99.90
4643;DHT22;2334;48.710;9.622;2023-06-24T08:24:03;24.60;99.90
4643;DHT22;2334;48.710;9.622;2023-06-24T08:26:30;24.80;99.90
4643;DHT22;2334;48.710;9.622;2023-06-24T08:28:57;25.20;99.90
4643;DHT22;2334;48.710;9.622;2023-06-24T08:31:25;25.20;99.90
4643;DHT22;2334;48.710;9.622;2023-06-24T08:33:52;25.10;99.90
4643;DHT22;2334;48.710;9.622;2023-06-24T08:36:21;25.40;99.90
4643;DHT22;2334;48.710;9.622;2023-06-24T08:38:50;25.50;99.90
4643;DHT22;2334;48.710;9.622;2023-06-24T08:41:17;25.60;99.90
4643;DHT22;2334;48.710;9.622;2023-06-24T08:43:44;25.90;99.90
4643;DHT22;2334;48.710;9.622;2023-06-24T08:46:12;25.50;99.90
4643;DHT22;2334;48.710;9.622;2023-06-24T08:48:40;25.20;99.90
4643;DHT22;2334;48.710;9.622;2023-06-24T08:51:09;25.30;99.90
4643;DHT22;2334;48.710;9.622;2023-06-24T08:53:38;25.70;99.90
4643;DHT22;2334;48.710;9.622;2023-06-24T08:56:06;25.90;99.90
4643;DHT22;2334;48.710;9.622;2023-06-24T08:58:33;25.50;99.90
4643;DHT22;2334;48.710;9.622;2023-06-24T09:01:00;25.20;99.90
4643;DHT22;2334;48.710;9.622;2023-06-24T09:03:28;24.80;99.90
4643;DHT22;2334;48.710;9.622;2023-06-24T09:05:55;24.90;99.90
4643;DHT22;2334;48.710;9.622;2023-06-24T09:08:22;25.30;99.90
4643;DHT22;2334;48.710;9.622;2023-06-24T09:10:53;25.60;99.90
4643;DHT22;2334;48.710;9.622;2023-06-24T09:13:27;25.40;99.90
4643;DHT22;2334;48.710;9.622;2023-06-24T09:16:00;25.80;99.90
4643;DHT22;2334;48.710;9.622;2023-06-24T09:18:33;25.60;99.90
4643;DHT22;2334;48.710;9.622;2023-06-24T09:21:00;25.50;99.90
4643;DHT22;2334;48.710;9.622;2023-06-24T09:23:27;25.30;99.90
4643;DHT22;2334;48.710;9.622;2023-06-24T09:25:56;25.40;99.90
4643;DHT22;2334;48.710;9.622;2023-06-24T09:28:27;25.40;99.90
4643;DHT22;2334;48.710;9.622;2023-06-24T09:31:05;25.30;99.90
4643;DHT22;2334;48.710;9.622;2023-06-24T09:33:32;25.10;99.90
4643;DHT22;2334;48.710;9.622;2023-06-24T09:36:02;25.50;99.90
4643;DHT22;2334;48.710;9.622;2023-06-24T09:38:32;26.00;99.90
4643;DHT22;2334;48.710;9.622;2023-06-24T09:41:02;26.40;99.90
4643;DHT22;2334;48.710;9.622;2023-06-24T09:43:35;26.80;99.90
4643;DHT22;2334;48.710;9.622;2023-06-24T09:46:06;27.10;99.90
4643;DHT22;2334;48.710;9.622;2023-06-24T09:48:33;27.10;99.90
4643;DHT22;2334;48.710;9.622;2023-06-24T09:51:01;27.00;99.90
4643;DHT22;2334;48.710;9.622;2023-06-24T09:53:31;27.40;99.90
4643;DHT22;2334;48.710;9.622;2023-06-24T09:56:00;26.80;99.90
4643;DHT22;2334;48.710;9.622;2023-06-24T09:58:28;26.40;99.90
4643;DHT22;2334;48.710;9.622;2023-06-24T10:01:02;25.90;99.90
4643;DHT22;2334;48.710;9.622;2023-06-24T10:03:30;26.10;99.90
4643;DHT22;2334;48.710;9.622;2023-06-24T10:05:59;26.50;99.90
4643;DHT22;2334;48.710;9.622;2023-06-24T10:08:26;26.80;99.90
4643;DHT22;2334;48.710;9.622;2023-06-24T10:10:53;27.00;99.90
4643;DHT22;2334;48.710;9.622;2023-06-24T10:13:20;26.60;99.90
4643;DHT22;2334;48.710;9.622;2023-06-24T10:15:48;26.30;99.90
4643;DHT22;2334;48.710;9.622;2023-06-24T10:18:34;26.30;99.90
4643;DHT22;2334;48.710;9.622;2023-06-24T10:21:01;27.00;99.90
4643;DHT22;2334;48.710;9.622;2023-06-24T10:23:33;27.50;99.90
4643;DHT22;2334;48.710;9.622;2023-06-24T10:26:00;27.90;99.90
4643;DHT22;2334;48.710;9.622;2023-06-24T10:31:50;28.60;99.90
4643;DHT22;2334;48.710;9.622;2023-06-24T10:34:24;27.90;99.90
4643;DHT22;2334;48.710;9.622;2023-06-24T10:36:53;27.80;99.90
4643;DHT22;2334;48.710;9.622;2023-06-24T10:39:36;28.00;99.90
4643;DHT22;2334;48.710;9.622;2023-06-24T10:42:25;27.90;99.90
4643;DHT22;2334;48.710;9.622;2023-06-24T10:44:53;27.80;99.90
4643;DHT22;2334;48.710;9.622;2023-06-24T10:47:21;27.90;99.90
4643;DHT22;2334;48.710;9.622;2023-06-24T10:49:49;27.70;99.90
4643;DHT22;2334;48.710;9.622;2023-06-24T10:52:18;27.90;99.90
4643;DHT22;2334;48.710;9.622;2023-06-24T10:54:46;28.80;99.90
4643;DHT22;2334;48.710;9.622;2023-06-24T10:57:13;29.50;99.90
4643;DHT22;2334;48.710;9.622;2023-06-24T10:59:40;29.40;98.00
4643;DHT22;2334;48.710;9.622;2023-06-24T11:02:07;29.40;98.60
4643;DHT22;2334;48.710;9.622;2023-06-24T11:04:43;29.20;98.50
4643;DHT22;2334;48.710;9.622;2023-06-24T11:07:11;28.60;97.90
4643;DHT22;2334;48.710;9.622;2023-06-24T11:09:39;28.20;98.70
4643;DHT22;2334;48.710;9.622;2023-06-24T11:12:09;28.30;98.70
4643;DHT22;2334;48.710;9.622;2023-06-24T11:14:36;28.80;97.00
4643;DHT22;2334;48.710;9.622;2023-06-24T11:17:04;29.00;95.40
4643;DHT22;2334;48.710;9.622;2023-06-24T11:19:33;29.10;95.20
4643;DHT22;2334;48.710;9.622;2023-06-24T11:22:05;29.30;95.20
4643;DHT22;2334;48.710;9.622;2023-06-24T11:24:34;29.50;94.80
4643;DHT22;2334;48.710;9.622;2023-06-24T11:27:03;29.80;94.20
4643;DHT22;2334;48.710;9.622;2023-06-24T11:29:32;28.80;93.30
4643;DHT22;2334;48.710;9.622;2023-06-24T11:32:00;28.70;93.20
4643;DHT22;2334;48.710;9.622;2023-06-24T11:34:27;29.00;93.70
4643;DHT22;2334;48.710;9.622;2023-06-24T11:36:54;28.90;93.40
4643;DHT22;2334;48.710;9.622;2023-06-24T11:39:22;28.80;93.70
4643;DHT22;2334;48.710;9.622;2023-06-24T11:41:51;28.70;93.10
4643;DHT22;2334;48.710;9.622;2023-06-24T11:44:19;28.90;93.60
4643;DHT22;2334;48.710;9.622;2023-06-24T11:46:46;29.50;93.80
4643;DHT22;2334;48.710;9.622;2023-06-24T11:49:14;30.10;93.90
4643;DHT22;2334;48.710;9.622;2023-06-24T11:51:50;30.70;92.50
4643;DHT22;2334;48.710;9.622;2023-06-24T11:54:20;30.70;92.50
4643;DHT22;2334;48.710;9.622;2023-06-24T11:56:51;30.20;91.80
4643;DHT22;2334;48.710;9.622;2023-06-24T11:59:19;29.60;92.20
4643;DHT22;2334;48.710;9.622;2023-06-24T12:01:52;29.30;93.10
4643;DHT22;2334;48.710;9.622;2023-06-24T12:04:20;29.70;93.00
4643;DHT22;2334;48.710;9.622;2023-06-24T12:06:47;30.30;93.30
4643;DHT22;2334;48.710;9.622;2023-06-24T12:09:14;29.80;91.30
4643;DHT22;2334;48.710;9.622;2023-06-24T12:11:42;28.90;91.30
4643;DHT22;2334;48.710;9.622;2023-06-24T12:14:10;29.50;92.30
4643;DHT22;2334;48.710;9.622;2023-06-24T12:16:38;29.70;92.20
4643;DHT22;2334;48.710;9.622;2023-06-24T12:19:05;30.30;92.50
4643;DHT22;2334;48.710;9.622;2023-06-24T12:21:32;30.00;91.50
4643;DHT22;2334;48.710;9.622;2023-06-24T12:23:59;29.60;92.70
4643;DHT22;2334;48.710;9.622;2023-06-24T12:26:26;29.60;91.80
4643;DHT22;2334;48.710;9.622;2023-06-24T12:28:54;29.40;91.70
4643;DHT22;2334;48.710;9.622;2023-06-24T12:31:23;29.30;91.90
4643;DHT22;2334;48.710;9.622;2023-06-24T12:33:51;29.50;91.60
4643;DHT22;2334;48.710;9.622;2023-06-24T12:36:18;29.80;91.50
4643;DHT22;2334;48.710;9.622;2023-06-24T12:38:44;30.40;91.60
4643;DHT22;2334;48.710;9.622;2023-06-24T12:41:11;30.80;90.50
4643;DHT22;2334;48.710;9.622;2023-06-24T12:43:39;31.00;90.50
4643;DHT22;2334;48.710;9.622;2023-06-24T12:46:06;31.40;90.50
4643;DHT22;2334;48.710;9.622;2023-06-24T12:48:34;31.80;90.20
4643;DHT22;2334;48.710;9.622;2023-06-24T12:51:01;31.60;90.00
4643;DHT22;2334;48.710;9.622;2023-06-24T12:53:28;31.80;89.40
4643;DHT22;2334;48.710;9.622;2023-06-24T12:55:56;32.10;88.00
4643;DHT22;2334;48.710;9.622;2023-06-24T12:58:23;32.70;87.60
4643;DHT22;2334;48.710;9.622;2023-06-24T13:00:51;31.50;86.60
4643;DHT22;2334;48.710;9.622;2023-06-24T13:03:18;30.90;86.00
4643;DHT22;2334;48.710;9.622;2023-06-24T13:05:46;31.60;88.70
4643;DHT22;2334;48.710;9.622;2023-06-24T13:08:13;32.30;87.80
4643;DHT22;2334;48.710;9.622;2023-06-24T13:10:40;32.80;84.40
4643;DHT22;2334;48.710;9.622;2023-06-24T13:13:07;33.10;83.40
4643;DHT22;2334;48.710;9.622;2023-06-24T13:15:34;32.90;83.40
4643;DHT22;2334;48.710;9.622;2023-06-24T13:18:01;33.40;82.80
4643;DHT22;2334;48.710;9.622;2023-06-24T13:20:28;33.50;80.10
4643;DHT22;2334;48.710;9.622;2023-06-24T13:22:56;32.70;80.60
4643;DHT22;2334;48.710;9.622;2023-06-24T13:25:23;31.90;81.90
4643;DHT22;2334;48.710;9.622;2023-06-24T13:27:50;31.70;82.80
4643;DHT22;2334;48.710;9.622;2023-06-24T13:30:17;32.10;82.90
4643;DHT22;2334;48.710;9.622;2023-06-24T13:32:44;32.60;82.00
4643;DHT22;2334;48.710;9.622;2023-06-24T13:35:11;32.90;82.70
4643;DHT22;2334;48.710;9.622;2023-06-24T13:37:38;33.20;82.10
4643;DHT22;2334;48.710;9.622;2023-06-24T13:40:08;33.20;80.80
4643;DHT22;2334;48.710;9.622;2023-06-24T13:42:35;33.00;80.20
4643;DHT22;2334;48.710;9.622;2023-06-24T13:45:03;33.00;81.30
4643;DHT22;2334;48.710;9.622;2023-06-24T13:47:30;32.90;79.50
4643;DHT22;2334;48.710;9.622;2023-06-24T13:49:56;32.50;79.40
4643;DHT22;2334;48.710;9.622;2023-06-24T13:52:24;31.90;80.80
4643;DHT22;2334;48.710;9.622;2023-06-24T13:54:51;32.50;80.60
4643;DHT22;2334;48.710;9.622;2023-06-24T13:57:19;33.10;80.40
4643;DHT22;2334;48.710;9.622;2023-06-24T13:59:46;33.60;79.70
4643;DHT22;2334;48.710;9.622;2023-06-24T14:02:13;33.20;77.30
4643;DHT22;2334;48.710;9.622;2023-06-24T14:04:40;32.30;79.00
4643;DHT22;2334;48.710;9.622;2023-06-24T14:07:07;32.50;80.80
4643;DHT22;2334;48.710;9.622;2023-06-24T14:09:34;32.80;78.60
4643;DHT22;2334;48.710;9.622;2023-06-24T14:12:01;33.00;79.70
4643;DHT22;2334;48.710;9.622;2023-06-24T14:14:30;33.40;78.60
4643;DHT22;2334;48.710;9.622;2023-06-24T14:16:57;33.40;78.20
4643;DHT22;2334;48.710;9.622;2023-06-24T14:19:24;33.90;78.00
4643;DHT22;2334;48.710;9.622;2023-06-24T14:21:51;34.20;75.70
4643;DHT22;2334;48.710;9.622;2023-06-24T14:24:18;34.20;76.40
4643;DHT22;2334;48.710;9.622;2023-06-24T14:26:44;34.00;77.00
4643;DHT22;2334;48.710;9.622;2023-06-24T14:29:14;34.60;73.30
4643;DHT22;2334;48.710;9.622;2023-06-24T14:31:43;34.00;75.20
4643;DHT22;2334;48.710;9.622;2023-06-24T14:34:10;33.80;75.80
4643;DHT22;2334;48.710;9.622;2023-06-24T14:36:37;34.40;75.40
4643;DHT22;2334;48.710;9.622;2023-06-24T14:39:04;34.80;75.60
4643;DHT22;2334;48.710;9.622;2023-06-24T14:41:30;35.10;75.80
4643;DHT22;2334;48.710;9.622;2023-06-24T14:43:57;34.10;75.00
4643;DHT22;2334;48.710;9.622;2023-06-24T14:46:24;34.10;75.30
4643;DHT22;2334;48.710;9.622;2023-06-24T14:48:53;33.80;75.40
4643;DHT22;2334;48.710;9.622;2023-06-24T14:51:19;34.10;75.00
4643;DHT22;2334;48.710;9.622;2023-06-24T14:53:46;33.30;75.10
4643;DHT22;2334;48.710;9.622;2023-06-24T14:56:13;32.20;76.50
4643;DHT22;2334;48.710;9.622;2023-06-24T14:58:40;32.50;76.50
4643;DHT22;2334;48.710;9.622;2023-06-24T15:01:07;33.40;75.80
4643;DHT22;2334;48.710;9.622;2023-06-24T15:03:34;33.70;74.90
4643;DHT22;2334;48.710;9.622;2023-06-24T15:06:02;33.20;74.50
4643;DHT22;2334;48.710;9.622;2023-06-24T15:08:29;33.00;74.70
4643;DHT22;2334;48.710;9.622;2023-06-24T15:10:56;32.60;74.30
4643;DHT22;2334;48.710;9.622;2023-06-24T15:13:22;31.80;75.60
4643;DHT22;2334;48.710;9.622;2023-06-24T15:15:49;32.10;75.90
4643;DHT22;2334;48.710;9.622;2023-06-24T15:18:17;33.00;74.30
4643;DHT22;2334;48.710;9.622;2023-06-24T15:20:44;33.20;73.80
4643;DHT22;2334;48.710;9.622;2023-06-24T15:23:12;33.40;74.80
4643;DHT22;2334;48.710;9.622;2023-06-24T15:25:39;33.30;73.80
4643;DHT22;2334;48.710;9.622;2023-06-24T15:28:06;33.80;73.30
4643;DHT22;2334;48.710;9.622;2023-06-24T15:30:33;33.20;72.10
4643;DHT22;2334;48.710;9.622;2023-06-24T15:33:00;33.20;73.30
4643;DHT22;2334;48.710;9.622;2023-06-24T15:35:27;33.00;73.50
4643;DHT22;2334;48.710;9.622;2023-06-24T15:37:54;32.90;73.30
4643;DHT22;2334;48.710;9.622;2023-06-24T15:40:22;32.80;74.10
4643;DHT22;2334;48.710;9.622;2023-06-24T15:42:49;32.40;74.00
4643;DHT22;2334;48.710;9.622;2023-06-24T15:45:16;32.00;75.30
4643;DHT22;2334;48.710;9.622;2023-06-24T15:47:43;31.60;75.60
4643;DHT22;2334;48.710;9.622;2023-06-24T15:50:10;32.30;74.40
4643;DHT22;2334;48.710;9.622;2023-06-24T15:52:36;32.30;73.50
4643;DHT22;2334;48.710;9.622;2023-06-24T15:55:04;32.70;72.90
4643;DHT22;2334;48.710;9.622;2023-06-24T15:57:35;32.20;73.80
4643;DHT22;2334;48.710;9.622;2023-06-24T16:00:02;33.00;73.40
4643;DHT22;2334;48.710;9.622;2023-06-24T16:02:29;33.00;72.80
4643;DHT22;2334;48.710;9.622;2023-06-24T16:04:56;33.40;71.30
4643;DHT22;2334;48.710;9.622;2023-06-24T16:07:23;33.20;72.30
4643;DHT22;2334;48.710;9.622;2023-06-24T16:09:50;33.70;71.40